Map

Track Data

SID SEASON NUMBER BASIN SUBBASIN NAME ISO_TIME NATURE LAT LON WMO_WIND WMO_PRES WMO_AGENCY TRACK_TYPE DIST2LAND LANDFALL IFLAG USA_AGENCY USA_ATCF_ID USA_LAT USA_LON USA_RECORD USA_STATUS USA_WIND USA_PRES USA_SSHS USA_R34_NE USA_R34_SE USA_R34_SW USA_R34_NW USA_R50_NE USA_R50_SE USA_R50_SW USA_R50_NW USA_R64_NE USA_R64_SE USA_R64_SW USA_R64_NW USA_POCI USA_ROCI USA_RMW USA_EYE TOKYO_LAT TOKYO_LON TOKYO_GRADE TOKYO_WIND TOKYO_PRES TOKYO_R50_DIR TOKYO_R50_LONG TOKYO_R50_SHORT TOKYO_R30_DIR TOKYO_R30_LONG TOKYO_R30_SHORT TOKYO_LAND CMA_LAT CMA_LON CMA_CAT CMA_WIND CMA_PRES HKO_LAT HKO_LON HKO_CAT HKO_WIND HKO_PRES NEWDELHI_LAT NEWDELHI_LON NEWDELHI_GRADE NEWDELHI_WIND NEWDELHI_PRES NEWDELHI_CI NEWDELHI_DP NEWDELHI_POCI REUNION_LAT REUNION_LON REUNION_TYPE REUNION_WIND REUNION_PRES REUNION_TNUM REUNION_CI REUNION_RMW REUNION_R34_NE REUNION_R34_SE REUNION_R34_SW REUNION_R34_NW REUNION_R50_NE REUNION_R50_SE REUNION_R50_SW REUNION_R50_NW REUNION_R64_NE REUNION_R64_SE REUNION_R64_SW REUNION_R64_NW BOM_LAT BOM_LON BOM_TYPE BOM_WIND BOM_PRES BOM_TNUM BOM_CI BOM_RMW BOM_R34_NE BOM_R34_SE BOM_R34_SW BOM_R34_NW BOM_R50_NE BOM_R50_SE BOM_R50_SW BOM_R50_NW BOM_R64_NE BOM_R64_SE BOM_R64_SW BOM_R64_NW BOM_ROCI BOM_POCI BOM_EYE BOM_POS_METHOD BOM_PRES_METHOD NADI_LAT NADI_LON NADI_CAT NADI_WIND NADI_PRES WELLINGTON_LAT WELLINGTON_LON WELLINGTON_WIND WELLINGTON_PRES DS824_LAT DS824_LON DS824_STAGE DS824_WIND DS824_PRES TD9636_LAT TD9636_LON TD9636_STAGE TD9636_WIND TD9636_PRES TD9635_LAT TD9635_LON TD9635_WIND TD9635_PRES TD9635_ROCI NEUMANN_LAT NEUMANN_LON NEUMANN_CLASS NEUMANN_WIND NEUMANN_PRES MLC_LAT MLC_LON MLC_CLASS MLC_WIND MLC_PRES USA_GUST BOM_GUST BOM_GUST_PER REUNION_GUST REUNION_GUST_PER USA_SEAHGT USA_SEARAD_NE USA_SEARAD_SE USA_SEARAD_SW USA_SEARAD_NW STORM_SPEED STORM_DIR
1942252N21092 1942 48 NI BB NOT_NAMED 1942-09-09 00:00:00 TS 20.7000 91.9000 main 47 47 _________O____ -1 20.7000 91.9000 TC 30 3 270
1942252N21092 1942 48 NI BB NOT_NAMED 1942-09-09 03:00:00 TS 20.7000 91.7367 main 66 66 _________PO___ -1 20.7000 91.6550 TC 30 20.7000 91.9000 1 4 270
1942252N21092 1942 48 NI BB NOT_NAMED 1942-09-09 06:00:00 TS 20.7002 91.4938 main 83 83 _________OP___ -1 20.7000 91.4000 TC 30 20.7004 91.6344 1 5 270
1942252N21092 1942 48 NI BB NOT_NAMED 1942-09-09 09:00:00 TS 20.7002 91.2379 main 108 108 _________PP___ -1 20.7000 91.1350 TC 30 20.7005 91.3750 1 4 270
1942252N21092 1942 48 NI BB NOT_NAMED 1942-09-09 12:00:00 TS 20.7001 91.0141 main 127 127 _________OP___ -1 20.7000 90.9000 TC 30 20.7003 91.1281 1 4 270
1942252N21092 1942 48 NI BB NOT_NAMED 1942-09-09 15:00:00 TS 20.6999 90.8250 main 137 133 _________PO___ -1 20.6999 90.7500 TC 30 20.7000 90.9000 1 3 270
1942252N21092 1942 48 NI BB NOT_NAMED 1942-09-09 18:00:00 TS 20.6999 90.6469 main 129 124 _________OP___ -1 20.7000 90.6000 TC 30 20.6998 90.6938 1 4 270
1942252N21092 1942 48 NI BB NOT_NAMED 1942-09-09 21:00:00 TS 20.6999 90.4325 main 124 123 _________PP___ -1 20.7000 90.3650 TC 30 20.6997 90.5000 1 4 270
1942252N21092 1942 48 NI BB NOT_NAMED 1942-09-10 00:00:00 TS 20.6999 90.2031 main 123 123 _________OP___ -1 20.7000 90.1000 TC 30 20.6998 90.3063 1 4 270
1942252N21092 1942 48 NI BB NOT_NAMED 1942-09-10 03:00:00 TS 20.7000 89.9750 main 123 116 _________PO___ -1 20.7000 89.8500 TC 30 20.7000 90.1000 1 4 270
1942252N21092 1942 48 NI BB NOT_NAMED 1942-09-10 06:00:00 TS 20.6980 89.7322 main 116 108 _________OP___ -1 20.7000 89.6000 TC 30 20.6959 89.8643 1 5 270
1942252N21092 1942 48 NI BB NOT_NAMED 1942-09-10 09:00:00 TS 20.6962 89.4825 main 108 101 _________PP___ -1 20.7000 89.3500 TC 30 20.6925 89.6149 1 5 270
1942252N21092 1942 48 NI BB NOT_NAMED 1942-09-10 12:00:00 TS 20.6964 89.2290 main 101 100 _________OP___ -1 20.7000 89.1000 TC 30 20.6928 89.3581 1 5 270
1942252N21092 1942 48 NI BB NOT_NAMED 1942-09-10 15:00:00 TS 20.6962 88.9750 main 100 100 _________PO___ -1 20.6925 88.8500 TC 30 20.7000 89.1000 1 5 272
1942252N21092 1942 48 NI BB NOT_NAMED 1942-09-10 18:00:00 TS 20.7106 88.7433 main 102 100 _________OP___ -1 20.7000 88.6000 TC 30 20.7213 88.8866 1 4 277
1942252N21092 1942 48 NI BB NOT_NAMED 1942-09-10 21:00:00 TS 20.7494 88.5238 main 100 89 _________PP___ -1 20.7498 88.3800 TC 30 20.7491 88.6675 1 5 280
1942252N21092 1942 48 NI BB NOT_NAMED 1942-09-11 00:00:00 TS 20.7887 88.2574 main 89 89 _________OP___ -1 20.8000 88.1000 TC 30 20.7774 88.4147 1 6 275
1942252N21092 1942 48 NI BB NOT_NAMED 1942-09-11 03:00:00 TS 20.8038 87.8937 main 93 51 _________PO___ -1 20.8075 87.6874 TC 30 20.8000 88.1000 1 8 271
1942252N21092 1942 48 NI BB NOT_NAMED 1942-09-11 06:00:00 TS 20.8016 87.4488 main 41 0 _________OP___ -1 20.8000 87.2000 TC 30 20.8033 87.6976 1 9 270
1942252N21092 1942 48 NI BB NOT_NAMED 1942-09-11 09:00:00 TS 20.8000 86.9736 main 0 0 _________PP___ -1 20.7998 86.7150 TC 30 20.8001 87.2322 1 9 270
1942252N21092 1942 48 NI BB NOT_NAMED 1942-09-11 12:00:00 TS 20.7984 86.4628 main 0 0 _________OP___ -1 20.8000 86.2000 TC 30 20.7969 86.7257 1 10 270
1942252N21092 1942 48 NI BB NOT_NAMED 1942-09-11 15:00:00 TS 20.7962 85.9250 main 0 0 _________PO___ -1 20.7925 85.6499 TC 30 20.8000 86.2000 1 10 270
1942252N21092 1942 48 NI BB NOT_NAMED 1942-09-11 18:00:00 TS 20.8067 85.3967 main 0 0 _________OP___ -1 20.8000 85.1000 TC 30 20.8134 85.6934 1 10 272
1942252N21092 1942 48 NI BB NOT_NAMED 1942-09-11 21:00:00 TS 20.8384 84.8862 main 0 0 _________PP___ -1 20.8422 84.6000 TC 30 20.8345 85.1724 1 10 274
1942252N21092 1942 48 NI BB NOT_NAMED 1942-09-12 00:00:00 TS 20.8817 84.3701 main 0 0 _________OP___ -1 20.9000 84.1000 TC 30 20.8633 84.6402 1 10 275
1942252N21092 1942 48 NI BB NOT_NAMED 1942-09-12 03:00:00 TS 20.9249 83.8287 main 0 0 _________PO___ -1 20.9499 83.5575 TC 30 20.9000 84.1000 1 10 275
1942252N21092 1942 48 NI BB NOT_NAMED 1942-09-12 06:00:00 TS 20.9713 83.2746 main 0 0 _________OP___ -1 21.0000 83.0000 TC 30 20.9426 83.5491 1 10 275
1942252N21092 1942 48 NI BB NOT_NAMED 1942-09-12 09:00:00 TS 21.0211 82.7175 main 0 0 _________PP___ -1 21.0499 82.4425 TC 30 20.9922 82.9926 1 10 276
1942252N21092 1942 48 NI BB NOT_NAMED 1942-09-12 12:00:00 TS 21.0729 82.1699 main 0 0 _________OP___ -1 21.1000 81.9000 TC 30 21.0457 82.4397 1 10 276
1942252N21092 1942 48 NI BB NOT_NAMED 1942-09-12 15:00:00 TS 21.1249 81.6462 main 0 0 _________PO___ -1 21.1498 81.3925 TC 30 21.1000 81.9000 1 9 276
1942252N21092 1942 48 NI BB NOT_NAMED 1942-09-12 18:00:00 TS 21.1729 81.1745 main 0 0 _________OP___ -1 21.2000 80.9000 TC 30 21.1526 81.3804 1 9 276
1942252N21092 1942 48 NI BB NOT_NAMED 1942-09-12 21:00:00 TS 21.2221 80.6876 main 0 0 _________PP___ -1 21.2503 80.4026 TC 30 21.2034 80.8777 1 9 276
1942252N21092 1942 48 NI BB NOT_NAMED 1942-09-13 00:00:00 TS 21.2683 80.2241 main 0 0 _________OP___ -1 21.3000 79.9000 TC 30 21.2524 80.3861 1 7 276
1942252N21092 1942 48 NI BB NOT_NAMED 1942-09-13 03:00:00 NR 21.3000 79.9000 main 0 __________O___ -1 TC 21.3000 79.9000 1 6 276

About IBTrACS Database

This database is a web-friendly format of International Best Track Archive for Climate Stewardship (IBTrACS), a global best track data archive curated by NOAA dating back to 1842.

Updated: 2021-10-21